sensor_id;sensor_type;location;lat;lon;timestamp;pressure;altitude;pressure_sealevel;temperature;humidity
66273;BME280;58450;52.150;4.466;2023-02-19T00:01:45;101773.19;;;10.09;100.00
66273;BME280;58450;52.150;4.466;2023-02-19T00:04:15;101778.28;;;10.20;100.00
66273;BME280;58450;52.150;4.466;2023-02-19T00:06:45;101775.53;;;10.12;100.00
66273;BME280;58450;52.150;4.466;2023-02-19T00:09:15;101774.41;;;10.15;100.00
66273;BME280;58450;52.150;4.466;2023-02-19T00:11:44;101777.88;;;10.07;100.00
66273;BME280;58450;52.150;4.466;2023-02-19T00:14:14;101787.66;;;10.16;100.00
66273;BME280;58450;52.150;4.466;2023-02-19T00:16:43;101780.47;;;9.90;100.00
66273;BME280;58450;52.150;4.466;2023-02-19T00:19:13;101774.19;;;10.08;100.00
66273;BME280;58450;52.150;4.466;2023-02-19T00:21:43;101784.75;;;10.01;100.00
66273;BME280;58450;52.150;4.466;2023-02-19T00:24:12;101769.41;;;9.94;100.00
66273;BME280;58450;52.150;4.466;2023-02-19T00:26:41;101789.81;;;10.04;100.00
66273;BME280;58450;52.150;4.466;2023-02-19T00:29:12;101783.38;;;9.97;100.00
66273;BME280;58450;52.150;4.466;2023-02-19T00:31:42;101790.75;;;9.95;100.00
66273;BME280;58450;52.150;4.466;2023-02-19T00:34:11;101793.78;;;9.92;100.00
66273;BME280;58450;52.150;4.466;2023-02-19T00:36:41;101797.16;;;9.94;100.00
66273;BME280;58450;52.150;4.466;2023-02-19T00:39:11;101796.38;;;10.10;100.00
66273;BME280;58450;52.150;4.466;2023-02-19T00:41:41;101795.13;;;9.96;100.00
66273;BME280;58450;52.150;4.466;2023-02-19T00:44:09;101801.53;;;9.95;100.00
66273;BME280;58450;52.150;4.466;2023-02-19T00:46:40;101806.84;;;9.87;100.00
66273;BME280;58450;52.150;4.466;2023-02-19T00:49:12;101820.19;;;9.70;100.00
66273;BME280;58450;52.150;4.466;2023-02-19T00:51:44;101816.53;;;9.80;100.00
66273;BME280;58450;52.150;4.466;2023-02-19T00:54:11;101809.31;;;9.80;100.00
66273;BME280;58450;52.150;4.466;2023-02-19T00:56:39;101807.53;;;9.63;100.00
66273;BME280;58450;52.150;4.466;2023-02-19T00:59:07;101830.94;;;9.70;100.00
66273;BME280;58450;52.150;4.466;2023-02-19T01:01:35;101813.69;;;9.81;100.00
66273;BME280;58450;52.150;4.466;2023-02-19T01:04:03;101810.78;;;9.74;100.00
66273;BME280;58450;52.150;4.466;2023-02-19T01:06:30;101810.94;;;9.73;100.00
66273;BME280;58450;52.150;4.466;2023-02-19T01:09:01;101810.53;;;9.59;100.00
66273;BME280;58450;52.150;4.466;2023-02-19T01:11:28;101803.63;;;9.57;100.00
66273;BME280;58450;52.150;4.466;2023-02-19T01:13:56;101805.34;;;9.66;100.00
66273;BME280;58450;52.150;4.466;2023-02-19T01:16:24;101811.63;;;9.75;100.00
66273;BME280;58450;52.150;4.466;2023-02-19T01:18:52;101819.53;;;9.76;100.00
66273;BME280;58450;52.150;4.466;2023-02-19T01:21:22;101807.84;;;9.86;100.00
66273;BME280;58450;52.150;4.466;2023-02-19T01:23:52;101816.38;;;9.81;100.00
66273;BME280;58450;52.150;4.466;2023-02-19T01:26:24;101825.94;;;9.75;100.00
66273;BME280;58450;52.150;4.466;2023-02-19T01:28:53;101826.19;;;9.90;100.00
66273;BME280;58450;52.150;4.466;2023-02-19T01:31:23;101828.44;;;9.77;100.00
66273;BME280;58450;52.150;4.466;2023-02-19T01:33:53;101826.44;;;9.79;100.00
66273;BME280;58450;52.150;4.466;2023-02-19T01:36:22;101828.25;;;9.70;100.00
66273;BME280;58450;52.150;4.466;2023-02-19T01:38:50;101837.25;;;9.61;100.00
66273;BME280;58450;52.150;4.466;2023-02-19T01:41:19;101826.03;;;9.66;100.00
66273;BME280;58450;52.150;4.466;2023-02-19T01:43:59;101829.09;;;9.53;100.00
66273;BME280;58450;52.150;4.466;2023-02-19T01:46:29;101838.53;;;9.57;100.00
66273;BME280;58450;52.150;4.466;2023-02-19T01:49:01;101824.81;;;9.60;100.00
66273;BME280;58450;52.150;4.466;2023-02-19T01:51:33;101830.19;;;9.60;100.00
66273;BME280;58450;52.150;4.466;2023-02-19T01:54:04;101829.94;;;9.71;100.00
66273;BME280;58450;52.150;4.466;2023-02-19T01:56:38;101838.16;;;9.52;100.00
66273;BME280;58450;52.150;4.466;2023-02-19T01:59:08;101830.03;;;9.61;100.00
66273;BME280;58450;52.150;4.466;2023-02-19T02:01:37;101839.25;;;9.59;100.00
66273;BME280;58450;52.150;4.466;2023-02-19T02:04:07;101840.53;;;9.55;100.00
66273;BME280;58450;52.150;4.466;2023-02-19T02:06:42;101843.59;;;9.60;100.00
66273;BME280;58450;52.150;4.466;2023-02-19T02:09:15;101851.06;;;9.66;100.00
66273;BME280;58450;52.150;4.466;2023-02-19T02:12:03;101830.31;;;9.76;100.00
66273;BME280;58450;52.150;4.466;2023-02-19T02:14:34;101851.28;;;9.99;100.00
66273;BME280;58450;52.150;4.466;2023-02-19T02:17:10;101861.38;;;9.79;100.00
66273;BME280;58450;52.150;4.466;2023-02-19T02:20:01;101839.31;;;9.67;100.00
66273;BME280;58450;52.150;4.466;2023-02-19T02:22:51;101852.84;;;9.57;100.00
66273;BME280;58450;52.150;4.466;2023-02-19T02:25:52;101838.78;;;9.64;100.00
66273;BME280;58450;52.150;4.466;2023-02-19T02:28:51;101855.00;;;9.36;100.00
66273;BME280;58450;52.150;4.466;2023-02-19T02:31:40;101847.31;;;9.59;100.00
66273;BME280;58450;52.150;4.466;2023-02-19T02:34:14;101838.34;;;9.50;100.00
66273;BME280;58450;52.150;4.466;2023-02-19T02:36:48;101842.09;;;9.57;100.00
66273;BME280;58450;52.150;4.466;2023-02-19T02:39:23;101843.03;;;9.48;100.00
66273;BME280;58450;52.150;4.466;2023-02-19T02:41:55;101847.22;;;9.51;100.00
66273;BME280;58450;52.150;4.466;2023-02-19T02:44:39;101843.78;;;9.58;100.00
66273;BME280;58450;52.150;4.466;2023-02-19T02:47:30;101845.91;;;9.55;100.00
66273;BME280;58450;52.150;4.466;2023-02-19T02:50:13;101849.91;;;9.69;100.00
66273;BME280;58450;52.150;4.466;2023-02-19T02:52:47;101861.72;;;9.58;100.00
66273;BME280;58450;52.150;4.466;2023-02-19T02:55:38;101873.78;;;9.54;100.00
66273;BME280;58450;52.150;4.466;2023-02-19T02:58:10;101880.25;;;9.61;100.00
66273;BME280;58450;52.150;4.466;2023-02-19T03:00:43;101862.50;;;9.32;100.00
66273;BME280;58450;52.150;4.466;2023-02-19T03:03:38;101872.03;;;9.44;100.00
66273;BME280;58450;52.150;4.466;2023-02-19T03:06:12;101890.84;;;9.26;100.00
66273;BME280;58450;52.150;4.466;2023-02-19T03:08:46;101884.84;;;9.14;100.00
66273;BME280;58450;52.150;4.466;2023-02-19T03:11:19;101893.31;;;9.20;100.00
66273;BME280;58450;52.150;4.466;2023-02-19T03:14:07;101880.88;;;9.19;100.00
66273;BME280;58450;52.150;4.466;2023-02-19T03:16:57;101898.38;;;9.23;100.00
66273;BME280;58450;52.150;4.466;2023-02-19T03:19:50;101888.63;;;9.22;100.00
66273;BME280;58450;52.150;4.466;2023-02-19T03:22:23;101900.38;;;9.21;100.00
66273;BME280;58450;52.150;4.466;2023-02-19T03:24:56;101888.94;;;9.19;100.00
66273;BME280;58450;52.150;4.466;2023-02-19T03:27:45;101888.47;;;9.23;100.00
66273;BME280;58450;52.150;4.466;2023-02-19T03:30:18;101894.91;;;9.30;100.00
66273;BME280;58450;52.150;4.466;2023-02-19T03:32:53;101900.38;;;9.21;100.00
66273;BME280;58450;52.150;4.466;2023-02-19T03:35:29;101906.13;;;9.26;100.00
66273;BME280;58450;52.150;4.466;2023-02-19T03:38:03;101911.94;;;9.39;100.00
66273;BME280;58450;52.150;4.466;2023-02-19T03:40:40;101909.16;;;9.31;100.00
66273;BME280;58450;52.150;4.466;2023-02-19T03:43:18;101912.50;;;9.25;100.00
66273;BME280;58450;52.150;4.466;2023-02-19T03:45:58;101912.53;;;9.15;100.00
66273;BME280;58450;52.150;4.466;2023-02-19T03:48:33;101922.59;;;9.13;100.00
66273;BME280;58450;52.150;4.466;2023-02-19T03:51:21;101917.78;;;9.16;100.00
66273;BME280;58450;52.150;4.466;2023-02-19T03:54:05;101918.69;;;9.25;100.00
66273;BME280;58450;52.150;4.466;2023-02-19T03:56:44;101921.00;;;9.20;100.00
66273;BME280;58450;52.150;4.466;2023-02-19T03:59:20;101919.78;;;9.14;100.00
66273;BME280;58450;52.150;4.466;2023-02-19T04:02:00;101914.72;;;9.29;100.00
66273;BME280;58450;52.150;4.466;2023-02-19T04:04:33;101918.91;;;9.32;100.00
66273;BME280;58450;52.150;4.466;2023-02-19T04:07:05;101917.72;;;9.44;100.00
66273;BME280;58450;52.150;4.466;2023-02-19T04:09:35;101916.31;;;9.40;100.00
66273;BME280;58450;52.150;4.466;2023-02-19T04:12:07;101911.19;;;9.47;100.00
66273;BME280;58450;52.150;4.466;2023-02-19T04:14:39;101929.44;;;9.43;100.00
66273;BME280;58450;52.150;4.466;2023-02-19T04:17:15;101921.78;;;9.67;100.00
66273;BME280;58450;52.150;4.466;2023-02-19T04:19:47;101934.78;;;9.53;100.00
66273;BME280;58450;52.150;4.466;2023-02-19T04:22:19;101938.66;;;9.59;100.00
66273;BME280;58450;52.150;4.466;2023-02-19T04:24:50;101939.97;;;9.55;100.00
66273;BME280;58450;52.150;4.466;2023-02-19T04:27:20;101950.41;;;9.58;100.00
66273;BME280;58450;52.150;4.466;2023-02-19T04:29:47;101956.00;;;9.46;100.00
66273;BME280;58450;52.150;4.466;2023-02-19T04:32:15;101968.91;;;9.43;100.00
66273;BME280;58450;52.150;4.466;2023-02-19T04:34:42;101967.44;;;9.49;100.00
66273;BME280;58450;52.150;4.466;2023-02-19T04:37:10;101976.28;;;9.59;100.00
66273;BME280;58450;52.150;4.466;2023-02-19T04:39:39;101974.22;;;9.53;100.00
66273;BME280;58450;52.150;4.466;2023-02-19T04:42:06;101968.06;;;9.42;100.00
66273;BME280;58450;52.150;4.466;2023-02-19T04:44:34;102003.16;;;9.41;100.00
66273;BME280;58450;52.150;4.466;2023-02-19T04:47:01;101992.25;;;9.42;100.00
66273;BME280;58450;52.150;4.466;2023-02-19T04:49:29;102000.31;;;9.42;100.00
66273;BME280;58450;52.150;4.466;2023-02-19T04:51:56;101983.97;;;9.36;100.00
66273;BME280;58450;52.150;4.466;2023-02-19T04:54:24;102007.84;;;9.57;100.00
66273;BME280;58450;52.150;4.466;2023-02-19T04:56:53;102003.38;;;9.48;100.00
66273;BME280;58450;52.150;4.466;2023-02-19T04:59:20;102011.72;;;9.26;100.00
66273;BME280;58450;52.150;4.466;2023-02-19T05:01:48;102022.75;;;9.23;100.00
66273;BME280;58450;52.150;4.466;2023-02-19T05:04:15;102013.41;;;9.27;100.00
66273;BME280;58450;52.150;4.466;2023-02-19T05:06:42;102025.22;;;9.16;100.00
66273;BME280;58450;52.150;4.466;2023-02-19T05:09:10;102024.75;;;9.49;100.00
66273;BME280;58450;52.150;4.466;2023-02-19T05:11:37;102025.69;;;9.30;100.00
66273;BME280;58450;52.150;4.466;2023-02-19T05:14:06;102032.69;;;9.69;100.00
66273;BME280;58450;52.150;4.466;2023-02-19T05:16:34;102041.41;;;9.53;100.00
66273;BME280;58450;52.150;4.466;2023-02-19T05:19:01;102044.19;;;9.33;100.00
66273;BME280;58450;52.150;4.466;2023-02-19T05:21:29;102040.34;;;9.64;100.00
66273;BME280;58450;52.150;4.466;2023-02-19T05:23:56;102041.66;;;9.59;100.00
66273;BME280;58450;52.150;4.466;2023-02-19T05:26:23;102030.75;;;9.33;100.00
66273;BME280;58450;52.150;4.466;2023-02-19T05:28:52;102034.84;;;9.37;100.00
66273;BME280;58450;52.150;4.466;2023-02-19T05:31:21;102034.59;;;9.76;100.00
66273;BME280;58450;52.150;4.466;2023-02-19T05:33:49;102039.72;;;9.52;100.00
66273;BME280;58450;52.150;4.466;2023-02-19T05:36:18;102033.84;;;9.38;100.00
66273;BME280;58450;52.150;4.466;2023-02-19T05:38:51;102039.81;;;9.60;100.00
66273;BME280;58450;52.150;4.466;2023-02-19T05:41:21;102030.41;;;9.46;100.00
66273;BME280;58450;52.150;4.466;2023-02-19T05:43:51;102045.22;;;9.96;100.00
66273;BME280;58450;52.150;4.466;2023-02-19T05:46:21;102043.75;;;9.66;100.00
66273;BME280;58450;52.150;4.466;2023-02-19T05:48:51;102048.34;;;9.55;100.00
66273;BME280;58450;52.150;4.466;2023-02-19T05:51:20;102037.09;;;9.42;100.00
66273;BME280;58450;52.150;4.466;2023-02-19T05:53:50;102045.81;;;9.26;100.00
66273;BME280;58450;52.150;4.466;2023-02-19T05:56:30;102062.50;;;9.48;100.00
66273;BME280;58450;52.150;4.466;2023-02-19T05:59:00;102058.38;;;9.25;100.00
66273;BME280;58450;52.150;4.466;2023-02-19T06:01:34;102057.19;;;9.66;100.00
66273;BME280;58450;52.150;4.466;2023-02-19T06:04:02;102064.09;;;9.68;100.00
66273;BME280;58450;52.150;4.466;2023-02-19T06:06:30;102069.94;;;9.82;100.00
66273;BME280;58450;52.150;4.466;2023-02-19T06:08:58;102077.22;;;9.71;100.00
66273;BME280;58450;52.150;4.466;2023-02-19T06:11:25;102065.69;;;9.79;100.00
66273;BME280;58450;52.150;4.466;2023-02-19T06:13:55;102075.00;;;9.67;100.00
66273;BME280;58450;52.150;4.466;2023-02-19T06:16:22;102083.00;;;9.76;100.00
66273;BME280;58450;52.150;4.466;2023-02-19T06:18:51;102084.38;;;9.81;100.00
66273;BME280;58450;52.150;4.466;2023-02-19T06:21:19;102074.44;;;9.63;100.00
66273;BME280;58450;52.150;4.466;2023-02-19T06:23:47;102080.44;;;9.75;100.00
66273;BME280;58450;52.150;4.466;2023-02-19T06:26:16;102092.81;;;9.68;100.00
66273;BME280;58450;52.150;4.466;2023-02-19T06:28:48;102086.38;;;9.51;100.00
66273;BME280;58450;52.150;4.466;2023-02-19T06:31:18;102090.63;;;9.53;100.00
66273;BME280;58450;52.150;4.466;2023-02-19T06:33:47;102107.84;;;9.32;100.00
66273;BME280;58450;52.150;4.466;2023-02-19T06:36:19;102092.22;;;9.46;100.00
66273;BME280;58450;52.150;4.466;2023-02-19T06:38:47;102087.47;;;9.30;100.00
66273;BME280;58450;52.150;4.466;2023-02-19T06:41:15;102091.81;;;9.41;100.00
66273;BME280;58450;52.150;4.466;2023-02-19T06:43:43;102094.22;;;9.34;100.00
66273;BME280;58450;52.150;4.466;2023-02-19T06:46:11;102108.06;;;9.39;100.00
66273;BME280;58450;52.150;4.466;2023-02-19T06:48:40;102106.38;;;9.38;100.00
66273;BME280;58450;52.150;4.466;2023-02-19T06:51:11;102103.44;;;9.31;100.00
66273;BME280;58450;52.150;4.466;2023-02-19T06:53:40;102113.97;;;9.15;100.00
66273;BME280;58450;52.150;4.466;2023-02-19T06:56:22;102109.63;;;9.42;100.00
66273;BME280;58450;52.150;4.466;2023-02-19T06:58:51;102109.16;;;9.19;100.00
66273;BME280;58450;52.150;4.466;2023-02-19T07:01:19;102122.25;;;9.31;100.00
66273;BME280;58450;52.150;4.466;2023-02-19T07:03:46;102130.31;;;9.31;100.00
66273;BME280;58450;52.150;4.466;2023-02-19T07:06:14;102131.06;;;9.14;100.00
66273;BME280;58450;52.150;4.466;2023-02-19T07:08:43;102152.44;;;9.06;100.00
66273;BME280;58450;52.150;4.466;2023-02-19T07:11:11;102148.97;;;9.33;100.00
66273;BME280;58450;52.150;4.466;2023-02-19T07:13:38;102148.56;;;9.28;100.00
66273;BME280;58450;52.150;4.466;2023-02-19T07:16:07;102168.72;;;9.04;100.00
66273;BME280;58450;52.150;4.466;2023-02-19T07:18:36;102171.38;;;9.04;100.00
66273;BME280;58450;52.150;4.466;2023-02-19T07:21:06;102170.06;;;9.18;100.00
66273;BME280;58450;52.150;4.466;2023-02-19T07:23:36;102168.59;;;9.43;100.00
66273;BME280;58450;52.150;4.466;2023-02-19T07:26:07;102177.22;;;9.47;100.00
66273;BME280;58450;52.150;4.466;2023-02-19T07:28:36;102179.41;;;9.24;100.00
66273;BME280;58450;52.150;4.466;2023-02-19T07:31:04;102184.13;;;9.50;100.00
66273;BME280;58450;52.150;4.466;2023-02-19T07:33:32;102198.03;;;9.35;100.00
66273;BME280;58450;52.150;4.466;2023-02-19T07:35:59;102199.75;;;9.26;100.00
66273;BME280;58450;52.150;4.466;2023-02-19T07:38:27;102204.16;;;9.18;100.00
66273;BME280;58450;52.150;4.466;2023-02-19T07:40:56;102195.72;;;9.50;100.00
66273;BME280;58450;52.150;4.466;2023-02-19T07:43:28;102211.47;;;9.25;100.00
66273;BME280;58450;52.150;4.466;2023-02-19T07:45:56;102218.41;;;9.28;100.00
66273;BME280;58450;52.150;4.466;2023-02-19T07:48:24;102220.34;;;9.45;100.00
66273;BME280;58450;52.150;4.466;2023-02-19T07:50:52;102212.44;;;9.44;100.00
66273;BME280;58450;52.150;4.466;2023-02-19T07:53:21;102232.66;;;9.38;100.00
66273;BME280;58450;52.150;4.466;2023-02-19T07:55:50;102242.81;;;9.54;100.00
66273;BME280;58450;52.150;4.466;2023-02-19T07:58:19;102247.81;;;9.29;100.00
66273;BME280;58450;52.150;4.466;2023-02-19T08:00:48;102250.88;;;9.44;100.00
66273;BME280;58450;52.150;4.466;2023-02-19T08:03:15;102256.97;;;9.46;100.00
66273;BME280;58450;52.150;4.466;2023-02-19T08:05:42;102249.59;;;9.49;100.00
66273;BME280;58450;52.150;4.466;2023-02-19T08:08:11;102253.47;;;9.26;100.00
66273;BME280;58450;52.150;4.466;2023-02-19T08:10:40;102262.09;;;9.20;100.00
66273;BME280;58450;52.150;4.466;2023-02-19T08:13:26;102261.13;;;9.11;100.00
66273;BME280;58450;52.150;4.466;2023-02-19T08:16:10;102257.16;;;9.06;100.00
66273;BME280;58450;52.150;4.466;2023-02-19T08:18:40;102250.94;;;9.15;100.00
66273;BME280;58450;52.150;4.466;2023-02-19T08:21:08;102258.56;;;9.10;100.00
66273;BME280;58450;52.150;4.466;2023-02-19T08:23:37;102259.81;;;9.35;100.00
66273;BME280;58450;52.150;4.466;2023-02-19T08:26:05;102261.50;;;9.36;100.00
66273;BME280;58450;52.150;4.466;2023-02-19T08:28:34;102265.47;;;9.42;100.00
66273;BME280;58450;52.150;4.466;2023-02-19T08:31:05;102266.50;;;8.82;100.00
66273;BME280;58450;52.150;4.466;2023-02-19T08:33:34;102274.09;;;9.45;100.00
66273;BME280;58450;52.150;4.466;2023-02-19T08:36:03;102278.34;;;9.28;100.00
66273;BME280;58450;52.150;4.466;2023-02-19T08:38:33;102274.94;;;9.46;100.00
66273;BME280;58450;52.150;4.466;2023-02-19T08:41:04;102283.72;;;9.48;100.00
66273;BME280;58450;52.150;4.466;2023-02-19T08:43:32;102280.56;;;9.53;100.00
66273;BME280;58450;52.150;4.466;2023-02-19T08:46:00;102280.59;;;9.33;100.00
66273;BME280;58450;52.150;4.466;2023-02-19T08:48:29;102277.09;;;9.23;100.00
66273;BME280;58450;52.150;4.466;2023-02-19T08:50:59;102270.16;;;9.40;100.00
66273;BME280;58450;52.150;4.466;2023-02-19T08:53:30;102272.25;;;9.36;100.00
66273;BME280;58450;52.150;4.466;2023-02-19T08:56:03;102265.75;;;9.39;100.00
66273;BME280;58450;52.150;4.466;2023-02-19T08:58:31;102269.44;;;9.28;100.00
66273;BME280;58450;52.150;4.466;2023-02-19T09:01:00;102280.88;;;9.30;100.00
66273;BME280;58450;52.150;4.466;2023-02-19T09:03:27;102287.66;;;9.34;100.00
66273;BME280;58450;52.150;4.466;2023-02-19T09:05:56;102287.69;;;9.44;100.00
66273;BME280;58450;52.150;4.466;2023-02-19T09:08:23;102292.78;;;9.27;100.00
66273;BME280;58450;52.150;4.466;2023-02-19T09:10:58;102291.19;;;10.02;100.00
66273;BME280;58450;52.150;4.466;2023-02-19T09:13:26;102305.19;;;9.38;100.00
66273;BME280;58450;52.150;4.466;2023-02-19T09:15:54;102291.19;;;9.54;100.00
66273;BME280;58450;52.150;4.466;2023-02-19T09:18:22;102297.25;;;9.66;100.00
66273;BME280;58450;52.150;4.466;2023-02-19T09:20:50;102317.13;;;9.26;100.00
66273;BME280;58450;52.150;4.466;2023-02-19T09:23:19;102316.25;;;9.45;100.00
66273;BME280;58450;52.150;4.466;2023-02-19T09:25:47;102332.94;;;9.09;100.00
66273;BME280;58450;52.150;4.466;2023-02-19T09:28:14;102354.25;;;9.60;100.00
66273;BME280;58450;52.150;4.466;2023-02-19T09:30:42;102339.16;;;10.07;100.00
66273;BME280;58450;52.150;4.466;2023-02-19T09:33:10;102345.72;;;9.84;100.00
66273;BME280;58450;52.150;4.466;2023-02-19T09:35:38;102356.81;;;9.61;100.00
66273;BME280;58450;52.150;4.466;2023-02-19T09:38:05;102353.00;;;9.54;100.00
66273;BME280;58450;52.150;4.466;2023-02-19T09:40:37;102352.00;;;9.45;100.00
66273;BME280;58450;52.150;4.466;2023-02-19T09:43:06;102362.34;;;9.50;100.00
66273;BME280;58450;52.150;4.466;2023-02-19T09:45:36;102376.72;;;9.88;100.00
66273;BME280;58450;52.150;4.466;2023-02-19T09:48:04;102377.47;;;9.41;100.00
66273;BME280;58450;52.150;4.466;2023-02-19T09:50:41;102384.78;;;9.88;100.00
66273;BME280;58450;52.150;4.466;2023-02-19T09:53:14;102380.06;;;10.10;100.00
66273;BME280;58450;52.150;4.466;2023-02-19T09:55:47;102386.34;;;9.91;100.00
66273;BME280;58450;52.150;4.466;2023-02-19T09:58:22;102393.19;;;9.66;100.00
66273;BME280;58450;52.150;4.466;2023-02-19T10:00:57;102392.56;;;10.01;100.00
66273;BME280;58450;52.150;4.466;2023-02-19T10:03:29;102387.47;;;9.98;100.00
66273;BME280;58450;52.150;4.466;2023-02-19T10:06:01;102394.28;;;9.73;100.00
66273;BME280;58450;52.150;4.466;2023-02-19T10:08:34;102406.19;;;9.51;100.00
66273;BME280;58450;52.150;4.466;2023-02-19T10:11:05;102398.28;;;9.69;100.00
66273;BME280;58450;52.150;4.466;2023-02-19T10:13:34;102394.81;;;9.86;100.00
66273;BME280;58450;52.150;4.466;2023-02-19T10:16:11;102406.72;;;9.74;100.00
66273;BME280;58450;52.150;4.466;2023-02-19T10:18:43;102402.22;;;9.65;100.00
66273;BME280;58450;52.150;4.466;2023-02-19T10:21:16;102412.72;;;10.25;100.00
66273;BME280;58450;52.150;4.466;2023-02-19T10:23:47;102424.31;;;9.58;100.00
66273;BME280;58450;52.150;4.466;2023-02-19T10:26:21;102424.16;;;10.47;100.00
66273;BME280;58450;52.150;4.466;2023-02-19T10:28:49;102419.50;;;10.77;100.00
66273;BME280;58450;52.150;4.466;2023-02-19T10:31:19;102429.59;;;10.65;100.00
66273;BME280;58450;52.150;4.466;2023-02-19T10:33:49;102442.34;;;10.15;100.00
66273;BME280;58450;52.150;4.466;2023-02-19T10:36:24;102436.16;;;9.95;100.00
66273;BME280;58450;52.150;4.466;2023-02-19T10:38:55;102430.38;;;9.51;100.00
66273;BME280;58450;52.150;4.466;2023-02-19T10:41:26;102421.06;;;9.65;100.00
66273;BME280;58450;52.150;4.466;2023-02-19T10:44:03;102431.09;;;9.63;100.00
66273;BME280;58450;52.150;4.466;2023-02-19T10:46:34;102437.56;;;9.99;100.00
66273;BME280;58450;52.150;4.466;2023-02-19T10:49:18;102434.50;;;9.65;100.00
66273;BME280;58450;52.150;4.466;2023-02-19T10:51:51;102432.38;;;9.58;100.00
66273;BME280;58450;52.150;4.466;2023-02-19T10:54:25;102429.53;;;9.80;100.00
66273;BME280;58450;52.150;4.466;2023-02-19T10:57:14;102438.97;;;9.74;100.00
66273;BME280;58450;52.150;4.466;2023-02-19T10:59:56;102429.38;;;9.71;100.00
66273;BME280;58450;52.150;4.466;2023-02-19T11:02:27;102438.16;;;9.93;100.00
66273;BME280;58450;52.150;4.466;2023-02-19T11:05:05;102440.31;;;10.27;100.00
66273;BME280;58450;52.150;4.466;2023-02-19T11:07:45;102438.59;;;10.56;100.00
66273;BME280;58450;52.150;4.466;2023-02-19T11:10:26;102431.84;;;10.70;100.00
66273;BME280;58450;52.150;4.466;2023-02-19T11:12:59;102435.72;;;10.57;100.00
66273;BME280;58450;52.150;4.466;2023-02-19T11:15:30;102434.25;;;10.73;100.00
66273;BME280;58450;52.150;4.466;2023-02-19T11:18:03;102440.59;;;10.82;100.00
66273;BME280;58450;52.150;4.466;2023-02-19T11:20:34;102446.50;;;11.13;100.00
66273;BME280;58450;52.150;4.466;2023-02-19T11:23:11;102453.09;;;10.73;100.00
66273;BME280;58450;52.150;4.466;2023-02-19T11:25:43;102461.06;;;10.64;100.00
66273;BME280;58450;52.150;4.466;2023-02-19T11:28:25;102456.75;;;10.82;100.00
66273;BME280;58450;52.150;4.466;2023-02-19T11:31:13;102455.78;;;11.29;100.00
66273;BME280;58450;52.150;4.466;2023-02-19T11:33:53;102446.91;;;11.18;100.00
66273;BME280;58450;52.150;4.466;2023-02-19T11:36:31;102441.06;;;11.23;100.00
66273;BME280;58450;52.150;4.466;2023-02-19T11:39:14;102432.66;;;10.80;100.00
66273;BME280;58450;52.150;4.466;2023-02-19T11:42:01;102431.75;;;11.53;100.00
66273;BME280;58450;52.150;4.466;2023-02-19T11:45:02;102437.63;;;11.67;100.00
66273;BME280;58450;52.150;4.466;2023-02-19T11:47:53;102440.06;;;11.60;100.00
66273;BME280;58450;52.150;4.466;2023-02-19T11:50:49;102439.84;;;11.72;100.00
66273;BME280;58450;52.150;4.466;2023-02-19T11:53:24;102460.34;;;12.27;100.00
66273;BME280;58450;52.150;4.466;2023-02-19T11:56:07;102465.00;;;11.98;100.00
66273;BME280;58450;52.150;4.466;2023-02-19T11:58:54;102463.47;;;11.78;100.00
66273;BME280;58450;52.150;4.466;2023-02-19T12:01:50;102471.03;;;11.38;100.00
66273;BME280;58450;52.150;4.466;2023-02-19T12:07:54;102466.00;;;12.16;100.00
66273;BME280;58450;52.150;4.466;2023-02-19T12:10:59;102474.66;;;12.46;100.00
66273;BME280;58450;52.150;4.466;2023-02-19T12:14:01;102461.88;;;12.91;100.00
66273;BME280;58450;52.150;4.466;2023-02-19T12:16:49;102460.28;;;12.19;100.00
66273;BME280;58450;52.150;4.466;2023-02-19T12:19:36;102465.97;;;11.71;100.00
66273;BME280;58450;52.150;4.466;2023-02-19T12:22:32;102474.28;;;11.60;100.00
66273;BME280;58450;52.150;4.466;2023-02-19T12:25:28;102487.00;;;11.21;100.00
66273;BME280;58450;52.150;4.466;2023-02-19T12:28:33;102489.66;;;11.03;100.00
66273;BME280;58450;52.150;4.466;2023-02-19T12:31:27;102491.47;;;11.41;100.00
66273;BME280;58450;52.150;4.466;2023-02-19T12:34:38;102491.84;;;11.64;100.00
66273;BME280;58450;52.150;4.466;2023-02-19T12:37:28;102494.06;;;11.68;100.00
66273;BME280;58450;52.150;4.466;2023-02-19T12:40:16;102498.00;;;11.10;100.00
66273;BME280;58450;52.150;4.466;2023-02-19T12:43:08;102508.75;;;11.20;100.00
66273;BME280;58450;52.150;4.466;2023-02-19T12:45:42;102503.97;;;11.32;100.00
66273;BME280;58450;52.150;4.466;2023-02-19T12:48:22;102529.72;;;11.16;100.00
66273;BME280;58450;52.150;4.466;2023-02-19T12:51:01;102535.00;;;11.08;100.00
66273;BME280;58450;52.150;4.466;2023-02-19T12:53:39;102536.38;;;11.22;100.00
66273;BME280;58450;52.150;4.466;2023-02-19T12:56:15;102535.09;;;11.26;100.00
66273;BME280;58450;52.150;4.466;2023-02-19T12:58:51;102543.38;;;11.15;100.00
66273;BME280;58450;52.150;4.466;2023-02-19T13:01:24;102545.50;;;11.11;100.00
66273;BME280;58450;52.150;4.466;2023-02-19T13:04:21;102549.31;;;11.64;100.00
66273;BME280;58450;52.150;4.466;2023-02-19T13:06:58;102544.88;;;11.91;100.00
66273;BME280;58450;52.150;4.466;2023-02-19T13:09:34;102543.16;;;12.45;100.00
66273;BME280;58450;52.150;4.466;2023-02-19T13:12:10;102553.25;;;12.43;100.00
66273;BME280;58450;52.150;4.466;2023-02-19T13:14:41;102550.44;;;12.26;100.00
66273;BME280;58450;52.150;4.466;2023-02-19T13:17:19;102550.53;;;12.16;100.00
66273;BME280;58450;52.150;4.466;2023-02-19T13:19:56;102551.88;;;12.38;100.00
66273;BME280;58450;52.150;4.466;2023-02-19T13:22:34;102552.53;;;12.59;100.00
66273;BME280;58450;52.150;4.466;2023-02-19T13:25:31;102556.09;;;12.41;100.00